Time;durP1;ratioP1;P1;durP2;ratioP2;P2;SDS_P1;SDS_P2;PMS_P1;PMS_P2;Temp;Humidity;BMP_temperature;BMP_pressure;BME280_temperature;BME280_humidity;BME280_pressure;Samples;Min_cycle;Max_cycle;Signal;HPM_P1;HPM_P2
2022/12/21 00:01:56;;;;;;;32.78;4.63;;;;;;;21.65;56.24;99270.56;7309629;19;129606;-66
2022/12/21 00:04:22;;;;;;;41.15;4.97;;;;;;;21.61;56.67;99266.63;7313802;19;128984;-68
2022/12/21 00:06:48;;;;;;;28.10;4.40;;;;;;;21.63;56.29;99277.75;7312827;19;129559;-66
2022/12/21 00:09:14;;;;;;;31.92;4.32;;;;;;;21.59;56.66;99271.16;7313623;19;129352;-67
2022/12/21 00:11:40;;;;;;;30.07;4.20;;;;;;;21.49;56.43;99259.94;7311767;19;129976;-69
2022/12/21 00:14:08;;;;;;;21.40;3.50;;;;;;;21.49;56.84;99244.25;7314437;19;129140;-69
2022/12/21 00:16:37;;;;;;;37.75;4.97;;;;;;;21.45;56.60;99260.38;7311571;19;129267;-66
2022/12/21 00:19:02;;;;;;;33.05;4.32;;;;;;;21.40;56.55;99268.66;7313229;19;129072;-69
2022/12/21 00:21:30;;;;;;;45.83;5.28;;;;;;;21.38;56.80;99281.06;7310086;19;129162;-66
2022/12/21 00:24:00;;;;;;;27.80;4.03;;;;;;;21.33;57.60;99261.53;7313030;19;128864;-68
2022/12/21 00:26:29;;;;;;;29.33;4.13;;;;;;;21.30;57.25;99265.28;7312159;19;129490;-68
2022/12/21 00:28:56;;;;;;;32.08;4.70;;;;;;;21.25;57.44;99254.44;7311216;19;131901;-68
2022/12/21 00:31:24;;;;;;;71.50;6.60;;;;;;;21.22;57.80;99262.56;7311044;19;129150;-69
2022/12/21 00:33:51;;;;;;;34.63;4.75;;;;;;;21.23;57.98;99266.84;7312079;19;129495;-68
2022/12/21 00:36:18;;;;;;;26.17;4.07;;;;;;;21.13;57.62;99258.22;7311581;19;129074;-69
2022/12/21 00:38:46;;;;;;;27.30;4.03;;;;;;;21.16;57.98;99257.91;7311998;19;134220;-68
2022/12/21 00:41:14;;;;;;;39.30;4.60;;;;;;;21.11;58.18;99252.28;7309135;19;129783;-66
2022/12/21 00:43:41;;;;;;;26.55;4.13;;;;;;;21.07;58.13;99250.13;7310776;19;128973;-68
2022/12/21 00:46:06;;;;;;;14.68;3.45;;;;;;;21.04;58.05;99253.84;7312635;19;129009;-68
2022/12/21 00:48:34;;;;;;;18.67;3.50;;;;;;;20.99;58.67;99250.81;7320760;19;130041;-67
2022/12/21 00:51:04;;;;;;;42.78;4.93;;;;;;;20.84;59.40;99231.31;7311253;19;129194;-66
2022/12/21 00:53:30;;;;;;;17.92;3.92;;;;;;;20.96;59.41;99256.31;7312540;19;129299;-68
2022/12/21 00:56:00;;;;;;;28.30;3.88;;;;;;;20.93;59.79;99256.59;7311309;19;128919;-66
2022/12/21 00:58:27;;;;;;;40.72;5.50;;;;;;;20.94;58.89;99253.03;7309888;19;129708;-66
2022/12/21 01:00:54;;;;;;;45.42;5.32;;;;;;;20.92;59.60;99265.44;7309262;19;129146;-68
2022/12/21 01:03:20;;;;;;;;;;;;;;;20.91;60.87;99262.97;7312305;19;128943;-65
2022/12/21 01:05:47;;;;;;;25.73;4.15;;;;;;;20.86;59.28;99260.75;7311289;19;128843;-65
2022/12/21 01:08:13;;;;;;;22.55;3.45;;;;;;;20.86;59.46;99268.59;7311845;19;129134;-66
2022/12/21 01:10:39;;;;;;;33.80;4.65;;;;;;;20.74;59.67;99252.28;7310900;19;129564;-66
2022/12/21 01:13:04;;;;;;;17.52;3.50;;;;;;;20.83;59.23;99261.03;7311654;19;129168;-67
2022/12/21 01:15:29;;;;;;;60.90;6.25;;;;;;;20.84;60.32;99262.69;7310364;19;129401;-68
2022/12/21 01:17:55;;;;;;;27.58;3.83;;;;;;;20.84;60.37;99254.84;7312879;19;129022;-66
2022/12/21 01:20:20;;;;;;;44.42;5.45;;;;;;;20.80;59.64;99255.28;7311298;19;129474;-68
2022/12/21 01:22:45;;;;;;;27.52;4.38;;;;;;;20.77;59.25;99248.56;7311270;19;129036;-70
2022/12/21 01:25:11;;;;;;;36.85;4.97;;;;;;;20.81;59.30;99243.88;7311254;19;130333;-68
2022/12/21 01:27:36;;;;;;;33.97;4.63;;;;;;;20.90;59.06;99251.69;7310845;19;130505;-68
2022/12/21 01:30:03;;;;;;;41.90;4.73;;;;;;;20.96;58.77;99251.09;7309454;19;130324;-67
2022/12/21 01:32:28;;;;;;;35.00;4.57;;;;;;;21.04;58.43;99268.72;7312257;19;129527;-66
2022/12/21 01:34:53;;;;;;;39.90;5.35;;;;;;;21.12;58.30;99255.75;7311349;19;129308;-68
2022/12/21 01:37:19;;;;;;;25.45;3.90;;;;;;;21.18;57.77;99248.16;7308847;19;131809;-68
2022/12/21 01:39:44;;;;;;;26.88;4.18;;;;;;;21.12;57.98;99224.38;7312979;19;129186;-68
2022/12/21 01:42:12;;;;;;;26.97;4.13;;;;;;;21.34;56.88;99235.25;7320011;19;129539;-66
2022/12/21 01:45:02;;;;;;;30.80;3.95;;;;;;;21.46;56.76;99247.16;7317274;19;129442;-66
2022/12/21 01:47:46;;;;;;;27.55;4.00;;;;;;;21.52;56.61;99230.88;7316158;19;129053;-66
2022/12/21 01:50:29;;;;;;;18.58;3.53;;;;;;;21.58;56.26;99243.38;7316344;19;129490;-67
2022/12/21 01:52:57;;;;;;;26.70;3.65;;;;;;;21.57;56.50;99238.25;7317202;19;129507;-68
2022/12/21 01:55:23;;;;;;;43.85;5.43;;;;;;;21.49;56.68;99246.03;7315282;19;129101;-74
2022/12/21 01:57:49;;;;;;;29.23;4.32;;;;;;;21.47;57.31;99235.72;7317224;19;129092;-69
2022/12/21 02:00:15;;;;;;;26.27;4.05;;;;;;;21.43;56.57;99234.38;7316210;19;129551;-67
2022/12/21 02:02:53;;;;;;;14.50;3.47;;;;;;;21.37;57.51;99234.94;7316972;19;128837;-69
2022/12/21 02:05:38;;;;;;;32.95;4.88;;;;;;;21.31;57.12;99230.31;7315305;19;129039;-69
2022/12/21 02:08:04;;;;;;;24.33;3.63;;;;;;;21.32;57.24;99231.16;7317221;19;129248;-68
2022/12/21 02:10:30;;;;;;;43.70;4.97;;;;;;;21.12;57.48;99204.25;7315136;19;129906;-68
2022/12/21 02:13:01;;;;;;;32.10;4.67;;;;;;;21.21;58.08;99224.31;7317164;19;129059;-68
2022/12/21 02:15:52;;;;;;;47.38;5.95;;;;;;;21.17;58.45;99215.09;7315124;19;130119;-69
2022/12/21 02:18:23;;;;;;;24.95;3.88;;;;;;;21.16;57.62;99216.09;7316923;19;129159;-70
2022/12/21 02:21:28;;;;;;;28.98;4.40;;;;;;;21.12;58.28;99214.72;7314893;19;129172;-67
2022/12/21 02:24:09;;;;;;;33.10;4.72;;;;;;;21.09;58.58;99194.09;7315612;19;128981;-68
2022/12/21 02:26:53;;;;;;;16.35;3.17;;;;;;;21.05;59.00;99200.63;7315248;19;129243;-66
2022/12/21 02:29:18;;;;;;;28.95;3.90;;;;;;;20.98;58.89;99210.00;7316620;19;129509;-68
2022/12/21 02:32:02;;;;;;;16.58;3.25;;;;;;;20.96;59.08;99213.69;7315320;19;129881;-69
2022/12/21 02:34:46;;;;;;;23.02;3.70;;;;;;;20.94;58.87;99211.22;7324465;19;128769;-68
2022/12/21 02:37:13;;;;;;;36.85;4.30;;;;;;;20.91;58.50;99205.47;7316091;19;128924;-68
2022/12/21 02:39:51;;;;;;;42.20;4.90;;;;;;;20.84;59.80;99199.16;7316439;19;129744;-68
2022/12/21 02:45:47;;;;;;;50.80;5.32;;;;;;;20.82;60.09;99196.72;7314231;19;129792;-66
2022/12/21 02:48:22;;;;;;;40.58;4.60;;;;;;;20.82;59.15;99190.66;7315776;19;128852;-69
2022/12/21 02:50:52;;;;;;;24.35;3.85;;;;;;;20.86;58.77;99198.03;7314829;19;129711;-66
2022/12/21 02:53:22;;;;;;;34.75;4.47;;;;;;;20.93;58.93;99188.66;7314583;19;129111;-66
2022/12/21 02:55:47;;;;;;;23.55;3.55;;;;;;;20.97;58.56;99190.06;7314353;19;129065;-69
2022/12/21 02:58:21;;;;;;;23.27;3.35;;;;;;;21.01;58.34;99180.94;7314285;19;128926;-68
2022/12/21 03:00:52;;;;;;;42.00;4.97;;;;;;;21.08;57.86;99176.78;7314052;19;130683;-67
2022/12/21 03:03:48;;;;;;;44.35;5.25;;;;;;;21.17;57.90;99180.31;7315011;19;129680;-70
2022/12/21 03:06:42;;;;;;;31.35;3.90;;;;;;;21.24;57.64;99161.28;7314089;19;129754;-68
2022/12/21 03:09:47;;;;;;;50.50;5.47;;;;;;;21.40;57.03;99174.50;7315243;19;129098;-69
2022/12/21 03:12:31;;;;;;;16.95;3.30;;;;;;;21.48;56.81;99174.59;7310407;19;129994;-66
2022/12/21 03:15:19;;;;;;;46.38;5.22;;;;;;;21.51;56.48;99163.84;7314238;19;132258;-69
2022/12/21 03:18:03;;;;;;;32.95;4.20;;;;;;;21.43;57.17;99137.63;7315172;19;128792;-69
2022/12/21 03:20:43;;;;;;;56.70;6.15;;;;;;;21.45;56.92;99174.88;7314338;19;128679;-66
2022/12/21 03:23:28;;;;;;;35.60;4.25;;;;;;;21.42;57.25;99159.50;7314871;19;129077;-69
2022/12/21 03:26:02;;;;;;;19.98;3.15;;;;;;;21.37;57.05;99156.50;7314465;19;130045;-69
2022/12/21 03:28:31;;;;;;;42.28;5.00;;;;;;;21.33;57.35;99149.94;7323051;19;129332;-68
2022/12/21 03:31:03;;;;;;;18.67;3.30;;;;;;;21.31;57.04;99151.88;7313510;19;129817;-68
2022/12/21 03:33:34;;;;;;;33.47;4.45;;;;;;;21.29;57.69;99151.19;7313374;19;129031;-69
2022/12/21 03:36:24;;;;;;;33.67;3.95;;;;;;;21.23;57.96;99143.97;7313538;19;129366;-67
2022/12/21 03:38:53;;;;;;;29.95;4.35;;;;;;;21.19;57.75;99142.59;7314249;19;129299;-68
2022/12/21 03:41:32;;;;;;;50.15;5.07;;;;;;;21.18;58.78;99154.03;7309900;19;128999;-67
2022/12/21 03:44:03;;;;;;;39.38;4.28;;;;;;;21.02;58.17;99138.19;7313628;19;129419;-68
2022/12/21 03:46:34;;;;;;;28.33;4.22;;;;;;;21.00;58.48;99147.97;7313363;19;129738;-66
2022/12/21 03:49:07;;;;;;;29.88;4.13;;;;;;;21.03;58.80;99147.66;7314324;19;128762;-68
2022/12/21 03:51:54;;;;;;;28.92;3.80;;;;;;;20.99;59.23;99154.13;7312038;19;129521;-67
2022/12/21 03:54:36;;;;;;;26.70;3.72;;;;;;;20.94;59.04;99151.09;7313587;19;129089;-68
2022/12/21 03:57:03;;;;;;;14.30;2.97;;;;;;;20.92;58.47;99145.22;7313086;19;129675;-69
2022/12/21 03:59:28;;;;;;;40.63;4.38;;;;;;;20.89;59.44;99148.09;7313306;19;129528;-66
2022/12/21 04:02:23;;;;;;;33.05;4.18;;;;;;;20.84;60.00;99144.31;7311982;19;129319;-66
2022/12/21 04:04:55;;;;;;;36.70;4.18;;;;;;;20.83;58.81;99146.09;7311280;19;129484;-69
2022/12/21 04:07:24;;;;;;;29.98;3.83;;;;;;;20.88;59.76;99143.84;7313067;19;130107;-68
2022/12/21 04:10:01;;;;;;;29.58;4.03;;;;;;;20.93;59.04;99136.41;7313731;19;129419;-69
2022/12/21 04:12:37;;;;;;;30.85;4.03;;;;;;;21.01;58.63;99140.91;7310740;19;128941;-66
2022/12/21 04:15:03;;;;;;;39.25;4.85;;;;;;;21.04;58.71;99132.81;7310344;19;131897;-69
2022/12/21 04:17:28;;;;;;;30.17;4.00;;;;;;;21.15;58.38;99141.25;7311134;19;132445;-66
2022/12/21 04:19:59;;;;;;;18.77;3.13;;;;;;;21.24;57.27;99137.75;7318344;19;129560;-68
2022/12/21 04:28:32;;;;;;;18.52;2.95;;;;;;;21.52;56.66;99133.25;7314105;19;130423;-66
2022/12/21 04:30:59;;;;;;;21.20;3.25;;;;;;;21.56;56.35;99138.06;7311123;19;129647;-68
2022/12/21 04:33:26;;;;;;;28.10;4.03;;;;;;;21.58;56.53;99130.88;7312492;19;128891;-69
2022/12/21 04:38:42;;;;;;;38.17;4.10;;;;;;;21.68;56.58;99122.94;7312847;19;129502;-68
2022/12/21 04:41:08;;;;;;;35.80;4.18;;;;;;;21.83;55.64;99121.47;7310148;19;129475;-68
2022/12/21 04:43:37;;;;;;;14.23;2.80;;;;;;;21.89;55.43;99116.44;7314197;19;129297;-69
2022/12/21 04:46:05;;;;;;;20.50;3.38;;;;;;;22.06;54.96;99119.16;7309995;19;130131;-66
2022/12/21 04:48:31;;;;;;;27.65;3.35;;;;;;;22.19;55.23;99120.41;7315246;19;130334;-65
2022/12/21 04:51:06;;;;;;;40.78;4.03;;;;;;;22.28;55.04;99121.28;7311876;19;129474;-67
2022/12/21 04:53:31;;;;;;;32.03;3.85;;;;;;;22.36;54.62;99122.09;7313172;19;129783;-68
2022/12/21 04:55:57;;;;;;;28.88;3.72;;;;;;;22.41;53.87;99111.19;7312989;19;130820;-67
2022/12/21 04:58:22;;;;;;;49.92;5.57;;;;;;;22.39;54.22;99092.19;7306926;19;129925;-65
2022/12/21 05:00:47;;;;;;;50.43;4.90;;;;;;;22.49;53.70;99100.75;7308648;19;131241;-67
2022/12/21 05:03:13;;;;;;;23.95;3.42;;;;;;;22.56;54.11;99107.03;7310348;19;129861;-66
2022/12/21 05:05:38;;;;;;;27.60;3.45;;;;;;;22.60;54.07;99097.84;7311237;19;129609;-66
2022/12/21 05:08:04;;;;;;;23.15;3.17;;;;;;;22.59;54.01;99102.28;7311009;19;129108;-65
2022/12/21 05:10:29;;;;;;;55.97;4.95;;;;;;;22.62;53.87;99106.38;7310587;19;129426;-65
2022/12/21 05:12:54;;;;;;;26.73;3.57;;;;;;;22.62;53.88;99094.13;7311995;19;129117;-64
2022/12/21 05:15:20;;;;;;;24.52;3.45;;;;;;;22.66;54.04;99094.63;7314380;19;131701;-66
2022/12/21 05:17:45;;;;;;;32.47;3.77;;;;;;;22.68;53.46;99095.25;7317637;19;130804;-68
2022/12/21 05:20:10;;;;;;;34.88;3.70;;;;;;;22.62;53.64;99088.06;7318339;19;129368;-65
2022/12/21 05:22:36;;;;;;;29.05;3.80;;;;;;;22.66;53.71;99094.63;7316320;19;129229;-65
2022/12/21 05:25:02;;;;;;;61.27;6.77;;;;;;;22.59;54.13;99086.56;7313805;19;129734;-66
2022/12/21 05:27:27;;;;;;;44.10;4.43;;;;;;;22.61;54.16;99081.19;7314248;19;129987;-67
2022/12/21 05:29:52;;;;;;;17.92;2.83;;;;;;;22.58;54.18;99084.09;7315234;19;130438;-66
2022/12/21 05:32:18;;;;;;;31.17;3.83;;;;;;;22.54;53.98;99080.16;7314522;19;128851;-64
2022/12/21 05:34:44;;;;;;;29.52;3.53;;;;;;;22.50;54.56;99084.88;7312870;19;130178;-64
2022/12/21 05:37:09;;;;;;;33.05;3.70;;;;;;;22.45;54.06;99096.78;7316100;19;129688;-65
2022/12/21 05:39:34;;;;;;;31.03;3.83;;;;;;;22.39;54.52;99079.09;7317015;19;129101;-64
2022/12/21 05:42:01;;;;;;;23.00;3.22;;;;;;;22.28;54.46;99076.75;7312815;19;128930;-65
2022/12/21 05:44:27;;;;;;;72.88;6.85;;;;;;;22.24;54.84;99083.25;7313290;19;129377;-66
2022/12/21 05:46:52;;;;;;;50.77;5.10;;;;;;;22.14;55.42;99080.75;7314473;19;129197;-66
2022/12/21 05:49:17;;;;;;;34.90;3.77;;;;;;;21.98;55.16;99073.63;7316035;19;129485;-64
2022/12/21 05:51:46;;;;;;;39.10;4.07;;;;;;;22.01;55.98;99087.38;7313454;19;129731;-63
2022/12/21 05:54:12;;;;;;;30.17;3.40;;;;;;;21.93;56.22;99083.75;7313071;19;129515;-63
2022/12/21 05:56:38;;;;;;;33.33;3.40;;;;;;;21.83;56.52;99085.63;7313947;19;129755;-62
2022/12/21 05:59:03;;;;;;;60.13;6.25;;;;;;;21.80;56.52;99085.94;7311242;19;130159;-64
2022/12/21 06:01:29;;;;;;;29.10;3.45;;;;;;;21.77;56.20;99081.03;7313500;19;129588;-65
2022/12/21 06:03:55;;;;;;;27.83;3.47;;;;;;;21.69;56.88;99078.31;7314257;19;129380;-64
2022/12/21 06:06:20;;;;;;;50.23;5.13;;;;;;;21.60;57.37;99079.22;7311346;19;129603;-64
2022/12/21 06:08:45;;;;;;;30.35;3.85;;;;;;;21.61;57.02;99083.50;7316701;19;129838;-66
2022/12/21 06:11:15;;;;;;;24.98;3.45;;;;;;;21.58;57.70;99082.97;7318034;19;129088;-63
2022/12/21 06:13:40;;;;;;;30.02;3.40;;;;;;;21.53;57.04;99083.44;7314205;19;129653;-65
2022/12/21 06:16:09;;;;;;;34.55;3.28;;;;;;;21.48;57.47;99080.47;7315876;19;129651;-63
2022/12/21 06:18:35;;;;;;;44.17;4.22;;;;;;;21.52;57.68;99087.00;7315756;19;129005;-63
2022/12/21 06:21:00;;;;;;;21.83;2.83;;;;;;;21.46;57.06;99078.94;7314367;19;129258;-64
2022/12/21 06:23:26;;;;;;;43.22;4.78;;;;;;;21.44;57.36;99079.09;7315504;19;129458;-65
2022/12/21 06:25:56;;;;;;;47.47;4.53;;;;;;;21.42;57.43;99072.41;7314631;19;129732;-64
2022/12/21 06:28:22;;;;;;;35.35;4.25;;;;;;;21.39;57.50;99078.72;7315463;19;129188;-65
2022/12/21 06:30:47;;;;;;;33.47;3.85;;;;;;;21.38;57.56;99077.09;7315448;19;129659;-65
2022/12/21 06:33:12;;;;;;;8.80;1.75;;;;;;;21.35;58.05;99074.78;7313930;19;132085;-63
2022/12/21 06:35:38;;;;;;;35.65;3.85;;;;;;;21.33;58.04;99068.88;7315077;19;129549;-65
2022/12/21 06:38:03;;;;;;;26.40;3.17;;;;;;;21.34;58.37;99075.75;7315536;19;128919;-67
2022/12/21 06:40:29;;;;;;;19.53;3.23;;;;;;;21.30;57.32;99074.41;7314208;19;128713;-65
2022/12/21 06:42:54;;;;;;;37.17;3.90;;;;;;;21.33;58.28;99081.13;7312029;19;129347;-67
2022/12/21 06:45:19;;;;;;;38.97;4.13;;;;;;;21.36;57.76;99078.22;7313123;19;132331;-65
2022/12/21 06:47:45;;;;;;;29.05;3.60;;;;;;;21.40;57.67;99072.50;7314656;19;128834;-65
2022/12/21 06:50:10;;;;;;;14.45;2.42;;;;;;;21.41;57.26;99082.03;7314993;19;129397;-65
2022/12/21 06:52:36;;;;;;;35.97;3.78;;;;;;;21.44;57.55;99079.09;7313461;19;130176;-67
2022/12/21 06:55:01;;;;;;;52.37;5.40;;;;;;;21.44;57.43;99070.44;7314296;19;130304;-65
2022/12/21 06:57:26;;;;;;;37.40;4.37;;;;;;;21.51;57.00;99074.91;7314373;19;128866;-65
2022/12/21 06:59:51;;;;;;;26.20;3.45;;;;;;;21.56;57.38;99072.66;7314634;19;128912;-63
2022/12/21 07:02:17;;;;;;;35.13;4.05;;;;;;;21.61;56.97;99070.41;7312897;19;129037;-67
2022/12/21 07:04:42;;;;;;;28.23;3.28;;;;;;;21.66;56.97;99067.34;7318771;19;130039;-63
2022/12/21 07:07:07;;;;;;;30.70;3.55;;;;;;;21.69;56.31;99070.47;7313565;19;129536;-65
2022/12/21 07:09:33;;;;;;;21.50;3.30;;;;;;;21.56;56.48;99054.34;7313471;19;130944;-65
2022/12/21 07:11:58;;;;;;;47.15;4.60;;;;;;;21.68;56.45;99081.88;7307946;19;130234;-65
2022/12/21 07:14:23;;;;;;;37.10;4.35;;;;;;;21.67;56.75;99085.50;7314150;19;129200;-65
2022/12/21 07:16:49;;;;;;;25.42;3.35;;;;;;;21.61;57.08;99080.88;7313695;19;128967;-65
2022/12/21 07:19:15;;;;;;;13.23;2.47;;;;;;;21.60;56.90;99089.69;7314427;19;129123;-63
2022/12/21 07:21:40;;;;;;;43.88;4.43;;;;;;;21.58;57.15;99085.59;7312133;19;129762;-65
2022/12/21 07:24:06;;;;;;;5.15;2.08;;;;;;;21.59;56.50;99082.00;7314006;19;129587;-64
2022/12/21 07:26:31;;;;;;;30.67;4.10;;;;;;;21.57;56.83;99092.59;7314183;19;129059;-66
2022/12/21 07:28:57;;;;;;;18.98;2.80;;;;;;;21.61;56.98;99101.81;7314115;19;129124;-65
2022/12/21 07:31:24;;;;;;;41.30;4.17;;;;;;;21.63;56.96;99096.44;7311223;19;132245;-65
2022/12/21 07:33:50;;;;;;;25.58;3.15;;;;;;;21.65;56.13;99092.66;7314371;19;129186;-65
2022/12/21 07:36:16;;;;;;;34.53;3.83;;;;;;;21.69;56.38;99099.25;7313434;19;129382;-65
2022/12/21 07:38:42;;;;;;;25.50;3.13;;;;;;;21.72;56.76;99104.16;7312344;19;129628;-64
2022/12/21 07:41:12;;;;;;;34.13;3.57;;;;;;;21.78;56.53;99092.31;7313517;19;129278;-66
2022/12/21 07:43:38;;;;;;;27.23;3.17;;;;;;;21.85;56.41;99088.94;7312416;19;132139;-63
2022/12/21 07:46:04;;;;;;;28.92;3.35;;;;;;;21.83;55.96;99083.00;7311563;19;129341;-65
2022/12/21 07:48:30;;;;;;;34.70;3.70;;;;;;;21.86;55.68;99087.13;7313381;19;129033;-64
2022/12/21 07:50:55;;;;;;;42.03;4.80;;;;;;;21.88;55.74;99101.69;7312701;19;129207;-62
2022/12/21 07:53:21;;;;;;;26.50;3.22;;;;;;;21.86;56.10;99097.59;7313820;19;129140;-63
2022/12/21 07:55:46;;;;;;;21.35;3.08;;;;;;;21.83;56.36;99101.34;7313278;19;130125;-66
2022/12/21 07:58:11;;;;;;;32.67;3.38;;;;;;;21.81;56.45;99103.31;7316720;19;129406;-63
2022/12/21 08:00:40;;;;;;;23.75;3.13;;;;;;;21.74;56.11;99101.41;7313058;19;129534;-65
2022/12/21 08:03:06;;;;;;;33.70;3.50;;;;;;;21.69;56.62;99104.47;7307569;19;129298;-66
2022/12/21 08:05:32;;;;;;;33.33;3.70;;;;;;;21.69;56.45;99098.41;7310309;19;129769;-65
2022/12/21 08:07:58;;;;;;;21.90;2.73;;;;;;;21.68;56.84;99100.22;7312967;19;129089;-62
2022/12/21 08:10:24;;;;;;;36.78;3.85;;;;;;;21.69;56.83;99109.72;7312586;19;129123;-65
2022/12/21 08:12:50;;;;;;;11.83;2.23;;;;;;;21.69;56.48;99103.66;7313786;19;129160;-65
2022/12/21 08:15:15;;;;;;;26.17;3.33;;;;;;;21.72;56.40;99101.56;7311544;19;129329;-67
2022/12/21 08:17:41;;;;;;;37.50;3.92;;;;;;;21.73;56.55;99095.34;7312754;19;130728;-64
2022/12/21 08:20:07;;;;;;;34.40;3.42;;;;;;;21.81;56.75;99105.09;7312946;19;129565;-63
2022/12/21 08:22:32;;;;;;;30.03;3.60;;;;;;;21.83;56.72;99103.94;7309710;19;132154;-65
2022/12/21 08:24:57;;;;;;;44.22;4.80;;;;;;;21.72;56.34;99088.47;7312323;19;129268;-63
2022/12/21 08:27:23;;;;;;;50.83;5.05;;;;;;;21.86;56.03;99103.66;7312454;19;129092;-65
2022/12/21 08:29:48;;;;;;;28.97;3.80;;;;;;;21.87;56.41;99107.09;7313323;19;130105;-65
2022/12/21 08:32:13;;;;;;;23.33;2.78;;;;;;;21.93;55.96;99112.53;7310101;19;129626;-65
2022/12/21 08:34:39;;;;;;;51.27;5.63;;;;;;;21.91;55.63;99109.25;7310715;19;129407;-65
2022/12/21 08:37:04;;;;;;;45.97;4.25;;;;;;;21.90;55.99;99115.47;7311598;19;129147;-65
2022/12/21 08:39:29;;;;;;;27.15;3.30;;;;;;;21.83;56.22;99109.19;7311178;19;131730;-63
2022/12/21 08:41:55;;;;;;;30.20;3.35;;;;;;;21.81;56.89;99124.25;7308273;19;131889;-65
2022/12/21 08:44:20;;;;;;;28.90;3.47;;;;;;;21.75;56.82;99118.75;7312470;19;128712;-65
2022/12/21 08:46:45;;;;;;;34.97;3.93;;;;;;;21.74;56.28;99117.94;7310209;19;129197;-64
2022/12/21 08:49:11;;;;;;;28.50;3.60;;;;;;;21.74;56.53;99120.56;7312014;19;129498;-63
2022/12/21 08:51:37;;;;;;;21.08;2.75;;;;;;;21.69;56.50;99116.72;7310367;19;131872;-64
2022/12/21 08:54:04;;;;;;;42.78;4.15;;;;;;;21.69;56.75;99119.34;7311976;19;129109;-66
2022/12/21 08:56:30;;;;;;;36.92;3.72;;;;;;;21.73;56.81;99120.69;7311246;19;128822;-64
2022/12/21 08:59:03;;;;;;;29.37;3.67;;;;;;;21.73;56.64;99121.50;7312967;19;129038;-66
2022/12/21 09:01:28;;;;;;;26.13;3.47;;;;;;;21.68;56.21;99102.81;7309517;19;129831;-66
2022/12/21 09:03:53;;;;;;;36.95;3.83;;;;;;;21.83;56.30;99117.03;7310525;19;129659;-63
2022/12/21 09:06:19;;;;;;;36.15;3.50;;;;;;;21.86;56.35;99116.75;7310314;19;129660;-65
2022/12/21 09:08:44;;;;;;;26.77;3.45;;;;;;;21.90;56.40;99115.47;7311536;19;129700;-62
2022/12/21 09:11:12;;;;;;;28.48;3.03;;;;;;;21.95;56.05;99109.75;7309957;19;128895;-65
2022/12/21 09:13:38;;;;;;;37.45;3.90;;;;;;;21.98;55.96;99116.50;7309345;19;131002;-67
2022/12/21 09:16:11;;;;;;;33.03;3.60;;;;;;;21.94;55.92;99124.66;7309582;19;128977;-67
2022/12/21 09:18:37;;;;;;;30.65;3.40;;;;;;;21.91;55.95;99114.47;7311606;19;129495;-65
2022/12/21 09:21:02;;;;;;;24.60;2.92;;;;;;;21.93;55.89;99117.75;7310473;19;129252;-64
2022/12/21 09:23:28;;;;;;;37.33;4.20;;;;;;;21.79;56.69;99104.41;7308191;19;129031;-65
2022/12/21 09:25:53;;;;;;;44.60;4.17;;;;;;;21.78;56.32;99118.47;7310467;19;129118;-65
2022/12/21 09:28:18;;;;;;;37.72;3.80;;;;;;;21.75;56.61;99114.31;7311451;19;129237;-65
2022/12/21 09:30:43;;;;;;;26.80;3.15;;;;;;;21.69;56.44;99109.72;7309069;19;129803;-66
2022/12/21 09:33:09;;;;;;;29.13;3.33;;;;;;;21.69;57.25;99109.72;7311121;19;128899;-65
2022/12/21 09:35:38;;;;;;;30.85;3.30;;;;;;;21.74;56.68;99107.47;7310325;19;128782;-65
2022/12/21 09:38:04;;;;;;;23.23;2.75;;;;;;;21.66;56.95;99089.09;7312266;19;129148;-64
2022/12/21 09:40:31;;;;;;;30.03;3.63;;;;;;;21.74;56.18;99112.69;7309456;19;129751;-63
2022/12/21 09:43:14;;;;;;;39.63;4.28;;;;;;;21.77;57.10;99116.81;7308568;19;128988;-66
2022/12/21 09:45:57;;;;;;;39.70;3.67;;;;;;;21.80;56.65;99101.66;7312640;19;129070;-66
2022/12/21 09:48:29;;;;;;;47.50;4.47;;;;;;;21.89;56.31;99108.59;7311593;19;129195;-66
2022/12/21 09:51:01;;;;;;;44.92;4.60;;;;;;;21.88;56.06;99106.94;7309009;19;129522;-65
2022/12/21 09:53:31;;;;;;;27.63;3.35;;;;;;;21.93;56.21;99101.25;7310643;19;131031;-63
2022/12/21 09:55:59;;;;;;;38.60;4.18;;;;;;;21.97;55.82;99102.56;7308288;19;129044;-66
2022/12/21 09:58:35;;;;;;;32.30;3.55;;;;;;;21.98;55.92;99106.03;7310457;19;129533;-65
2022/12/21 10:01:10;;;;;;;39.78;4.15;;;;;;;21.95;56.03;99099.28;7306292;19;133258;-62
2022/12/21 10:03:52;;;;;;;40.28;4.00;;;;;;;21.90;56.41;99099.75;7313047;19;130015;-63
2022/12/21 10:06:24;;;;;;;34.08;3.60;;;;;;;21.87;56.01;99089.59;7316346;19;129046;-62
2022/12/21 10:09:01;;;;;;;27.13;3.38;;;;;;;21.82;56.33;99094.47;7315166;19;132107;-65
2022/12/21 10:11:33;;;;;;;;;;;;;;;21.73;56.92;99090.09;7314731;19;132432;-66
2022/12/21 10:14:18;;;;;;;36.15;3.90;;;;;;;21.73;57.06;99095.34;7317140;19;129393;-63
2022/12/21 10:16:55;;;;;;;25.92;2.92;;;;;;;21.68;56.84;99081.88;7315551;19;129389;-65
2022/12/21 10:19:53;;;;;;;38.63;4.05;;;;;;;21.69;57.04;99080.94;7316075;19;129488;-62
2022/12/21 10:22:29;;;;;;;12.50;2.47;;;;;;;21.68;56.86;99081.88;7313670;19;130450;-67
2022/12/21 10:24:58;;;;;;;35.63;3.85;;;;;;;21.70;57.32;99085.19;7316297;19;129699;-64
2022/12/21 10:28:04;;;;;;;42.17;4.05;;;;;;;21.76;57.10;99084.63;7316645;19;128909;-63
2022/12/21 10:30:31;;;;;;;21.77;2.70;;;;;;;21.77;56.79;99088.03;7312796;19;129564;-63
2022/12/21 10:32:59;;;;;;;41.50;3.97;;;;;;;21.84;56.23;99081.22;7315968;19;130010;-63
2022/12/21 10:35:36;;;;;;;34.72;3.90;;;;;;;21.87;56.63;99080.91;7315217;19;128913;-67
2022/12/21 10:38:14;;;;;;;8.73;2.10;;;;;;;21.87;56.19;99084.38;7316342;19;129162;-65
2022/12/21 10:40:40;;;;;;;;;;;;;;;21.89;55.72;99085.03;7316286;19;129445;-65
2022/12/21 10:43:05;;;;;;;24.50;2.97;;;;;;;21.91;56.29;99077.84;7313543;19;129204;-66
2022/12/21 10:45:30;;;;;;;35.53;3.45;;;;;;;21.93;56.10;99081.13;7314986;19;129106;-65
2022/12/21 10:47:57;;;;;;;22.85;3.25;;;;;;;21.87;56.85;99066.03;7316173;19;129386;-65
2022/12/21 10:50:31;;;;;;;32.72;3.63;;;;;;;21.88;56.73;99079.97;7313823;19;129066;-65
2022/12/21 10:52:58;;;;;;;32.53;3.60;;;;;;;21.81;56.76;99076.31;7313720;19;129255;-65
2022/12/21 10:55:33;;;;;;;;;;;;;;;21.60;56.58;99055.69;7313778;19;128860;-65
2022/12/21 10:58:20;;;;;;;44.83;4.10;;;;;;;21.69;57.11;99069.66;7316098;19;129833;-63
2022/12/21 11:01:05;;;;;;;29.02;2.97;;;;;;;21.71;57.19;99063.31;7313633;19;129232;-63
2022/12/21 11:03:34;;;;;;;33.50;3.42;;;;;;;21.73;57.17;99063.16;7313061;19;129237;-66
2022/12/21 11:06:10;;;;;;;31.30;3.50;;;;;;;21.73;56.97;99053.47;7311821;19;129404;-64
2022/12/21 11:08:44;;;;;;;26.67;2.93;;;;;;;21.75;56.71;99051.53;7315331;19;128838;-65
2022/12/21 11:11:25;;;;;;;20.45;2.50;;;;;;;21.78;56.59;99055.69;7312631;19;129252;-66
2022/12/21 11:13:57;;;;;;;30.20;3.38;;;;;;;21.79;56.84;99054.69;7313728;19;129344;-64
2022/12/21 11:16:24;;;;;;;42.55;3.85;;;;;;;21.84;56.71;99045.44;7313136;19;129302;-63
2022/12/21 11:18:50;;;;;;;32.35;3.63;;;;;;;21.89;56.62;99043.16;7315737;19;128925;-65
2022/12/21 11:21:39;;;;;;;30.90;3.40;;;;;;;21.86;56.59;99032.19;7313258;19;129257;-64
2022/12/21 11:24:16;;;;;;;33.38;3.72;;;;;;;21.91;55.98;99030.72;7314584;19;129271;-66
2022/12/21 11:26:49;;;;;;;21.10;2.70;;;;;;;21.90;56.13;99029.09;7313963;19;129904;-65
2022/12/21 11:29:25;;;;;;;30.63;3.50;;;;;;;21.86;56.68;99033.00;7313844;19;128845;-67
2022/12/21 11:31:53;;;;;;;32.13;3.75;;;;;;;21.81;56.67;99022.19;7312793;19;129628;-66
2022/12/21 11:34:24;;;;;;;55.20;4.85;;;;;;;21.81;56.33;99023.97;7316868;19;129584;-62
2022/12/21 11:37:00;;;;;;;27.67;3.30;;;;;;;21.69;56.65;99018.16;7312362;19;129458;-65
2022/12/21 11:39:25;;;;;;;20.92;2.83;;;;;;;21.74;57.24;99034.22;7313718;19;128681;-63
2022/12/21 11:41:52;;;;;;;27.58;3.22;;;;;;;21.69;56.43;99036.47;7312447;19;129031;-64
2022/12/21 11:44:23;;;;;;;56.13;5.18;;;;;;;21.59;57.12;99030.50;7313451;19;129707;-66